Haukur — OZ2119 — position and weather

sailwx.info

Track history (hours):
 
Tides and Currents Weather Stations Pressure Air Temp Water Temp Dewpoint Dewpoint Depression Visibility Wind Speed Wind Dir Waves Ship Positions

Haukur

Last reported at 2016-Jun-26 00:05 UTC. Time now 2016-Jul-01 20:54 UTC.
Position N 55°49' E 015°53'.

Length 75 m; draft 4.3 m.

Type: Cargo ship. MMSI: 231812000.

Date/timePositionNaut miles runAvg speedWind from/ knotsBaromVisibWave heightAir tempDewpointWater temp
2016-Jun-26 00:05N 55°49' E 015°53'5 9.2
2016-Jun-25 23:33N 55°46' E 015°46'9 9.0
2016-Jun-25 22:33N 55°42' E 015°32'9 9.0
2016-Jun-25 21:33N 55°37' E 015°18'9 9.2
2016-Jun-25 20:33N 55°33' E 015°04'9 8.8
2016-Jun-25 19:33N 55°28' E 014°51'9 9.2
2016-Jun-25 18:33N 55°23' E 014°38'10 9.5
2016-Jun-25 17:33N 55°16' E 014°27'9 8.7
2016-Jun-25 16:33N 55°10' E 014°15'9 9.1
2016-Jun-25 15:33N 55°11' E 013°59'9 8.7
2016-Jun-25 14:33N 55°12' E 013°44'9 8.9
2016-Jun-25 13:33N 55°13' E 013°29'9 9.1
2016-Jun-25 12:33N 55°14' E 013°13'9 9.2
2016-Jun-25 11:33N 55°15' E 012°57'9 9.3
2016-Jun-25 10:33N 55°17' E 012°41'9 8.5
2016-Jun-25 09:33N 55°26' E 012°40'9 9.3
2016-Jun-25 08:33N 55°35' E 012°42'9 8.9
2016-Jun-25 07:33N 55°44' E 012°41'9 8.6
2016-Jun-25 06:33N 55°53' E 012°39'9 8.8
2016-Jun-25 05:33N 56°01' E 012°38'8 7.9
2016-Jun-25 04:33N 56°08' E 012°30'9 8.9
2016-Jun-25 03:33N 56°12' E 012°15'9 8.5
2016-Jun-25 02:33N 56°10' E 011°60'9 9.0
2016-Jun-25 01:32N 56°08' E 011°44'9 8.7
2016-Jun-25 00:31N 56°08' E 011°28'9 8.7
2016-Jun-24 23:30N 56°07' E 011°12'8 9.0
2016-Jun-24 22:33N 56°04' E 010°57'9 9.3
2016-Jun-24 21:33N 56°03' E 010°41'10 9.9
2016-Jun-24 20:33N 56°07' E 010°25'7 6.5
2016-Jun-24 19:33N 56°09' E 010°14'0 0.0
2016-Jun-24 18:33N 56°09' E 010°14'0 0.0
2016-Jun-24 17:33N 56°09' E 010°14'0 0.0
2016-Jun-24 16:33N 56°09' E 010°14'0 0.0
2016-Jun-24 15:33N 56°09' E 010°14'0 0.0
2016-Jun-24 14:33N 56°09' E 010°14'0 0.0
2016-Jun-24 13:33N 56°09' E 010°14'0 0.0
2016-Jun-24 12:33N 56°09' E 010°14'0 0.0
2016-Jun-24 11:33N 56°09' E 010°14'0 0.0
2016-Jun-24 10:33N 56°09' E 010°14'0 0.0
2016-Jun-24 09:33N 56°09' E 010°14'0 0.0
2016-Jun-24 08:33N 56°09' E 010°14'0 0.0
2016-Jun-24 07:33N 56°09' E 010°14'16 5.3
2016-Jun-24 04:33N 56°06' E 010°42'7 7.2
2016-Jun-24 03:33N 56°12' E 010°48'9 8.0
2016-Jun-24 02:24N 56°19' E 010°58'7 7.8
2016-Jun-24 01:33N 56°25' E 011°05'8 8.1
2016-Jun-24 00:33N 56°33' E 011°03'39 7.7
2016-Jun-23 19:33N 57°10' E 010°44'9 8.1
2016-Jun-23 18:24N 57°19' E 010°42'7 8.4
2016-Jun-23 17:33N 57°26' E 010°43'9 8.7
2016-Jun-23 16:33N 57°35' E 010°44'8 8.4
2016-Jun-23 15:33N 57°43' E 010°45'7 7.1
2016-Jun-23 14:32N 57°47' E 010°33'10 9.7
2016-Jun-23 13:33N 57°48' E 010°16'18 8.7
2016-Jun-23 11:30N 57°49' E 009°42'9 9.2
2016-Jun-23 10:31N 57°49' E 009°25'23 9.2
2016-Jun-23 08:05N 57°50' E 008°43'25 9.1
2016-Jun-23 05:19N 57°52' E 007°56'7 8.8
2016-Jun-23 04:30N 57°52' E 007°42'8 8.5
2016-Jun-23 03:30N 57°53' E 007°27'8 8.9
2016-Jun-23 02:33N 57°53' E 007°11'9 8.9
2016-Jun-23 01:33N 57°55' E 006°55'9 8.5
2016-Jun-23 00:33N 57°60' E 006°41'8 8.5
2016-Jun-22 23:32N 58°04' E 006°27'9 9.1
2016-Jun-22 22:33N 58°10' E 006°15'9 9.2
2016-Jun-22 21:33N 58°17' E 006°02'9 8.7
2016-Jun-22 20:33N 58°23' E 005°50'9 8.9
2016-Jun-22 19:33N 58°29' E 005°37'9 8.9
2016-Jun-22 18:33N 58°35' E 005°26'9 8.6
2016-Jun-22 17:33N 58°43' E 005°18'8 8.2
2016-Jun-22 16:33N 58°50' E 005°10'8 8.2
2016-Jun-22 15:33N 58°57' E 005°01'8 8.3
2016-Jun-22 14:33N 59°04' E 004°53'8 8.4
2016-Jun-22 13:33N 59°11' E 004°45'8 8.0
2016-Jun-22 12:33N 59°19' E 004°41'19 8.3
2016-Jun-22 10:15N 59°38' E 004°48'14 7.9
2016-Jun-22 08:26N 59°52' E 004°52'  
Track history (hours):
 
Tides and Currents Weather Stations Pressure Air Temp Water Temp Dewpoint Dewpoint Depression Visibility Wind Speed Wind Dir Waves Ship Positions

Haukur

Last reported at 2016-Jun-26 00:05 UTC. Time now 2016-Jul-01 20:54 UTC.
Position N 55°49' E 015°53'.

Length 75 m; draft 4.3 m.

Type: Cargo ship. MMSI: 231812000.

Date/timePositionNaut miles runAvg speedWind from/ knotsBaromVisibWave heightAir tempDewpointWater temp
2016-Jun-26 00:05N 55°49' E 015°53'5 9.2
2016-Jun-25 23:33N 55°46' E 015°46'9 9.0
2016-Jun-25 22:33N 55°42' E 015°32'9 9.0
2016-Jun-25 21:33N 55°37' E 015°18'9 9.2
2016-Jun-25 20:33N 55°33' E 015°04'9 8.8
2016-Jun-25 19:33N 55°28' E 014°51'9 9.2
2016-Jun-25 18:33N 55°23' E 014°38'10 9.5
2016-Jun-25 17:33N 55°16' E 014°27'9 8.7
2016-Jun-25 16:33N 55°10' E 014°15'9 9.1
2016-Jun-25 15:33N 55°11' E 013°59'9 8.7
2016-Jun-25 14:33N 55°12' E 013°44'9 8.9
2016-Jun-25 13:33N 55°13' E 013°29'9 9.1
2016-Jun-25 12:33N 55°14' E 013°13'9 9.2
2016-Jun-25 11:33N 55°15' E 012°57'9 9.3
2016-Jun-25 10:33N 55°17' E 012°41'9 8.5
2016-Jun-25 09:33N 55°26' E 012°40'9 9.3
2016-Jun-25 08:33N 55°35' E 012°42'9 8.9
2016-Jun-25 07:33N 55°44' E 012°41'9 8.6
2016-Jun-25 06:33N 55°53' E 012°39'9 8.8
2016-Jun-25 05:33N 56°01' E 012°38'8 7.9
2016-Jun-25 04:33N 56°08' E 012°30'9 8.9
2016-Jun-25 03:33N 56°12' E 012°15'9 8.5
2016-Jun-25 02:33N 56°10' E 011°60'9 9.0
2016-Jun-25 01:32N 56°08' E 011°44'9 8.7
2016-Jun-25 00:31N 56°08' E 011°28'9 8.7
2016-Jun-24 23:30N 56°07' E 011°12'8 9.0
2016-Jun-24 22:33N 56°04' E 010°57'9 9.3
2016-Jun-24 21:33N 56°03' E 010°41'10 9.9
2016-Jun-24 20:33N 56°07' E 010°25'7 6.5
2016-Jun-24 19:33N 56°09' E 010°14'0 0.0
2016-Jun-24 18:33N 56°09' E 010°14'0 0.0
2016-Jun-24 17:33N 56°09' E 010°14'0 0.0
2016-Jun-24 16:33N 56°09' E 010°14'0 0.0
2016-Jun-24 15:33N 56°09' E 010°14'0 0.0
2016-Jun-24 14:33N 56°09' E 010°14'0 0.0
2016-Jun-24 13:33N 56°09' E 010°14'0 0.0
2016-Jun-24 12:33N 56°09' E 010°14'0 0.0
2016-Jun-24 11:33N 56°09' E 010°14'0 0.0
2016-Jun-24 10:33N 56°09' E 010°14'0 0.0
2016-Jun-24 09:33N 56°09' E 010°14'0 0.0
2016-Jun-24 08:33N 56°09' E 010°14'0 0.0
2016-Jun-24 07:33N 56°09' E 010°14'16 5.3
2016-Jun-24 04:33N 56°06' E 010°42'7 7.2
2016-Jun-24 03:33N 56°12' E 010°48'9 8.0
2016-Jun-24 02:24N 56°19' E 010°58'7 7.8
2016-Jun-24 01:33N 56°25' E 011°05'8 8.1
2016-Jun-24 00:33N 56°33' E 011°03'39 7.7
2016-Jun-23 19:33N 57°10' E 010°44'9 8.1
2016-Jun-23 18:24N 57°19' E 010°42'7 8.4
2016-Jun-23 17:33N 57°26' E 010°43'9 8.7
2016-Jun-23 16:33N 57°35' E 010°44'8 8.4
2016-Jun-23 15:33N 57°43' E 010°45'7 7.1
2016-Jun-23 14:32N 57°47' E 010°33'10 9.7
2016-Jun-23 13:33N 57°48' E 010°16'18 8.7
2016-Jun-23 11:30N 57°49' E 009°42'9 9.2
2016-Jun-23 10:31N 57°49' E 009°25'23 9.2
2016-Jun-23 08:05N 57°50' E 008°43'25 9.1
2016-Jun-23 05:19N 57°52' E 007°56'7 8.8
2016-Jun-23 04:30N 57°52' E 007°42'8 8.5
2016-Jun-23 03:30N 57°53' E 007°27'8 8.9
2016-Jun-23 02:33N 57°53' E 007°11'9 8.9
2016-Jun-23 01:33N 57°55' E 006°55'9 8.5
2016-Jun-23 00:33N 57°60' E 006°41'8 8.5
2016-Jun-22 23:32N 58°04' E 006°27'9 9.1
2016-Jun-22 22:33N 58°10' E 006°15'9 9.2
2016-Jun-22 21:33N 58°17' E 006°02'9 8.7
2016-Jun-22 20:33N 58°23' E 005°50'9 8.9
2016-Jun-22 19:33N 58°29' E 005°37'9 8.9
2016-Jun-22 18:33N 58°35' E 005°26'9 8.6
2016-Jun-22 17:33N 58°43' E 005°18'8 8.2
2016-Jun-22 16:33N 58°50' E 005°10'8 8.2
2016-Jun-22 15:33N 58°57' E 005°01'8 8.3
2016-Jun-22 14:33N 59°04' E 004°53'8 8.4
2016-Jun-22 13:33N 59°11' E 004°45'8 8.0
2016-Jun-22 12:33N 59°19' E 004°41'19 8.3
2016-Jun-22 10:15N 59°38' E 004°48'14 7.9
2016-Jun-22 08:26N 59°52' E 004°52'  

Dump ship's entire track history